Lee, New York
Current Conditions -  °F | °C
As of 7:53 AM on Thursday 27 Nov 2014 (Local Time) from KRME Reporting Station
Overcast Overcast  
Wind Chill: 22°   Ceiling: 4800
Heat Index: 27°   Visibility: 10mi
Dew Point: 25°   Wind: 5mph
Humidity: 92%   Direction: 310°NW
Pressure: 30.02"   Gusts: NA
Location:  43.2466°N, 75.4624°W
Report Text: KRME 271253Z 31004KT 10SM SCT022 OVC048 M03/M04 A3002 RMK AO2 SNE07 SLP170 P0000 T10281039
Loading
Personal Weather Stations






























Interactive Weather Map New forecast layout! Learn more

10-Day Weather Forecast

Advertisements
Track Severe Weather on mobile